sensor_id;sensor_type;location;lat;lon;timestamp;temperature;humidity
25346;DHT22;13300;51.032;3.710;2022-10-29T00:03:28;16.50;99.90
25346;DHT22;13300;51.032;3.710;2022-10-29T00:08:50;16.40;99.90
25346;DHT22;13300;51.032;3.710;2022-10-29T00:11:39;16.40;99.90
25346;DHT22;13300;51.032;3.710;2022-10-29T00:17:10;16.30;99.90
25346;DHT22;13300;51.032;3.710;2022-10-29T00:19:50;16.30;99.90
25346;DHT22;13300;51.032;3.710;2022-10-29T00:22:32;16.30;99.90
25346;DHT22;13300;51.032;3.710;2022-10-29T00:25:05;16.30;99.90
25346;DHT22;13300;51.032;3.710;2022-10-29T00:27:46;16.20;99.90
25346;DHT22;13300;51.032;3.710;2022-10-29T00:33:16;16.20;99.90
25346;DHT22;13300;51.032;3.710;2022-10-29T00:39:01;16.10;99.90
25346;DHT22;13300;51.032;3.710;2022-10-29T00:44:38;16.20;99.90
25346;DHT22;13300;51.032;3.710;2022-10-29T00:56:24;16.20;99.90
25346;DHT22;13300;51.032;3.710;2022-10-29T01:02:08;16.20;99.90
25346;DHT22;13300;51.032;3.710;2022-10-29T01:05:12;16.20;99.90
25346;DHT22;13300;51.032;3.710;2022-10-29T01:07:50;16.30;99.90
25346;DHT22;13300;51.032;3.710;2022-10-29T01:10:31;16.20;99.90
25346;DHT22;13300;51.032;3.710;2022-10-29T01:21:44;16.30;99.90
25346;DHT22;13300;51.032;3.710;2022-10-29T01:40:53;16.50;99.90
25346;DHT22;13300;51.032;3.710;2022-10-29T01:43:25;16.50;99.90
25346;DHT22;13300;51.032;3.710;2022-10-29T01:45:59;16.50;99.90
25346;DHT22;13300;51.032;3.710;2022-10-29T01:51:30;16.40;99.90
25346;DHT22;13300;51.032;3.710;2022-10-29T01:54:24;16.40;99.90
25346;DHT22;13300;51.032;3.710;2022-10-29T01:56:55;16.40;99.90
25346;DHT22;13300;51.032;3.710;2022-10-29T02:10:59;16.30;99.90
25346;DHT22;13300;51.032;3.710;2022-10-29T02:13:47;16.30;99.90
25346;DHT22;13300;51.032;3.710;2022-10-29T02:16:24;16.30;99.90
25346;DHT22;13300;51.032;3.710;2022-10-29T02:19:33;16.40;99.90
25346;DHT22;13300;51.032;3.710;2022-10-29T02:25:10;16.60;99.90
25346;DHT22;13300;51.032;3.710;2022-10-29T02:27:44;16.70;99.90
25346;DHT22;13300;51.032;3.710;2022-10-29T02:30:17;16.80;99.90
25346;DHT22;13300;51.032;3.710;2022-10-29T02:32:56;16.90;99.90
25346;DHT22;13300;51.032;3.710;2022-10-29T02:35:32;16.90;99.90
25346;DHT22;13300;51.032;3.710;2022-10-29T02:38:06;16.90;99.90
25346;DHT22;13300;51.032;3.710;2022-10-29T02:40:46;16.90;99.90
25346;DHT22;13300;51.032;3.710;2022-10-29T02:43:40;17.00;99.90
25346;DHT22;13300;51.032;3.710;2022-10-29T02:46:30;16.90;99.90
25346;DHT22;13300;51.032;3.710;2022-10-29T02:49:06;16.90;99.90
25346;DHT22;13300;51.032;3.710;2022-10-29T02:51:52;17.00;99.90
25346;DHT22;13300;51.032;3.710;2022-10-29T02:57:11;17.00;99.90
25346;DHT22;13300;51.032;3.710;2022-10-29T02:59:57;17.00;99.90
25346;DHT22;13300;51.032;3.710;2022-10-29T03:02:38;16.90;99.90
25346;DHT22;13300;51.032;3.710;2022-10-29T03:05:12;17.00;99.90
25346;DHT22;13300;51.032;3.710;2022-10-29T03:08:09;16.90;99.90
25346;DHT22;13300;51.032;3.710;2022-10-29T03:10:45;17.00;99.90
25346;DHT22;13300;51.032;3.710;2022-10-29T03:13:24;17.00;99.90
25346;DHT22;13300;51.032;3.710;2022-10-29T03:16:27;17.00;99.90
25346;DHT22;13300;51.032;3.710;2022-10-29T03:21:53;17.00;99.90
25346;DHT22;13300;51.032;3.710;2022-10-29T03:24:24;17.10;99.90
25346;DHT22;13300;51.032;3.710;2022-10-29T03:27:15;17.00;99.90
25346;DHT22;13300;51.032;3.710;2022-10-29T03:29:41;16.90;99.90
25346;DHT22;13300;51.032;3.710;2022-10-29T03:32:06;16.90;99.90
25346;DHT22;13300;51.032;3.710;2022-10-29T03:40:30;16.90;99.90
25346;DHT22;13300;51.032;3.710;2022-10-29T03:45:52;16.70;99.90
25346;DHT22;13300;51.032;3.710;2022-10-29T03:48:26;16.60;99.90
25346;DHT22;13300;51.032;3.710;2022-10-29T03:51:20;16.60;99.90
25346;DHT22;13300;51.032;3.710;2022-10-29T03:53:55;16.60;99.90
25346;DHT22;13300;51.032;3.710;2022-10-29T03:56:29;16.50;99.90
25346;DHT22;13300;51.032;3.710;2022-10-29T03:59:10;16.50;99.90
25346;DHT22;13300;51.032;3.710;2022-10-29T04:01:41;16.40;99.90
25346;DHT22;13300;51.032;3.710;2022-10-29T04:04:08;16.50;99.90
25346;DHT22;13300;51.032;3.710;2022-10-29T04:06:34;16.30;99.90
25346;DHT22;13300;51.032;3.710;2022-10-29T04:12:11;16.40;99.90
25346;DHT22;13300;51.032;3.710;2022-10-29T04:14:45;16.30;99.90
25346;DHT22;13300;51.032;3.710;2022-10-29T04:17:16;16.20;99.90
25346;DHT22;13300;51.032;3.710;2022-10-29T04:20:06;16.20;99.90
25346;DHT22;13300;51.032;3.710;2022-10-29T04:22:48;16.10;99.90
25346;DHT22;13300;51.032;3.710;2022-10-29T04:25:19;16.10;99.90
25346;DHT22;13300;51.032;3.710;2022-10-29T04:28:03;16.20;99.90
25346;DHT22;13300;51.032;3.710;2022-10-29T04:30:39;16.30;99.90
25346;DHT22;13300;51.032;3.710;2022-10-29T04:36:02;16.10;99.90
25346;DHT22;13300;51.032;3.710;2022-10-29T04:38:28;16.20;99.90
25346;DHT22;13300;51.032;3.710;2022-10-29T04:41:12;16.20;99.90
25346;DHT22;13300;51.032;3.710;2022-10-29T04:44:04;16.20;99.90
25346;DHT22;13300;51.032;3.710;2022-10-29T04:46:37;16.30;99.90
25346;DHT22;13300;51.032;3.710;2022-10-29T04:49:08;16.30;99.90
25346;DHT22;13300;51.032;3.710;2022-10-29T04:51:44;16.30;99.90
25346;DHT22;13300;51.032;3.710;2022-10-29T04:54:21;16.20;99.90
25346;DHT22;13300;51.032;3.710;2022-10-29T05:09:32;16.00;99.90
25346;DHT22;13300;51.032;3.710;2022-10-29T05:12:28;15.90;99.90
25346;DHT22;13300;51.032;3.710;2022-10-29T05:15:01;15.90;99.90
25346;DHT22;13300;51.032;3.710;2022-10-29T05:20:35;16.10;99.90
25346;DHT22;13300;51.032;3.710;2022-10-29T05:37:54;16.10;99.90
25346;DHT22;13300;51.032;3.710;2022-10-29T05:40:30;16.20;99.90
25346;DHT22;13300;51.032;3.710;2022-10-29T05:43:13;16.00;99.90
25346;DHT22;13300;51.032;3.710;2022-10-29T05:45:46;16.10;99.90
25346;DHT22;13300;51.032;3.710;2022-10-29T05:48:12;16.10;99.90
25346;DHT22;13300;51.032;3.710;2022-10-29T05:50:58;16.00;99.90
25346;DHT22;13300;51.032;3.710;2022-10-29T05:53:44;16.10;99.90
25346;DHT22;13300;51.032;3.710;2022-10-29T05:59:36;16.20;99.90
25346;DHT22;13300;51.032;3.710;2022-10-29T06:05:11;16.20;99.90
25346;DHT22;13300;51.032;3.710;2022-10-29T06:13:35;16.30;99.90
25346;DHT22;13300;51.032;3.710;2022-10-29T06:16:16;16.30;99.90
25346;DHT22;13300;51.032;3.710;2022-10-29T06:18:54;16.30;99.90
25346;DHT22;13300;51.032;3.710;2022-10-29T06:21:40;16.40;99.90
25346;DHT22;13300;51.032;3.710;2022-10-29T06:24:15;16.40;99.90
25346;DHT22;13300;51.032;3.710;2022-10-29T06:26:46;16.30;99.90
25346;DHT22;13300;51.032;3.710;2022-10-29T06:29:12;16.20;99.90
25346;DHT22;13300;51.032;3.710;2022-10-29T06:31:40;16.20;99.90
25346;DHT22;13300;51.032;3.710;2022-10-29T06:40:16;16.50;99.90
25346;DHT22;13300;51.032;3.710;2022-10-29T06:49:14;16.60;99.90
25346;DHT22;13300;51.032;3.710;2022-10-29T06:52:10;16.70;99.90
25346;DHT22;13300;51.032;3.710;2022-10-29T07:00:39;16.70;99.90
25346;DHT22;13300;51.032;3.710;2022-10-29T07:03:16;16.70;99.90
25346;DHT22;13300;51.032;3.710;2022-10-29T07:05:45;16.60;99.90
25346;DHT22;13300;51.032;3.710;2022-10-29T07:08:38;16.70;99.90
25346;DHT22;13300;51.032;3.710;2022-10-29T07:11:13;16.90;99.90
25346;DHT22;13300;51.032;3.710;2022-10-29T07:13:47;17.00;99.90
25346;DHT22;13300;51.032;3.710;2022-10-29T07:16:26;17.10;99.90
25346;DHT22;13300;51.032;3.710;2022-10-29T07:19:12;17.10;99.90
25346;DHT22;13300;51.032;3.710;2022-10-29T07:24:42;17.10;99.90
25346;DHT22;13300;51.032;3.710;2022-10-29T07:27:08;17.30;99.90
25346;DHT22;13300;51.032;3.710;2022-10-29T07:29:54;17.30;99.90
25346;DHT22;13300;51.032;3.710;2022-10-29T07:32:27;17.30;99.90
25346;DHT22;13300;51.032;3.710;2022-10-29T07:35:00;17.30;99.90
25346;DHT22;13300;51.032;3.710;2022-10-29T07:37:28;17.50;99.90
25346;DHT22;13300;51.032;3.710;2022-10-29T07:39:54;17.60;99.90
25346;DHT22;13300;51.032;3.710;2022-10-29T07:42:21;17.60;99.90
25346;DHT22;13300;51.032;3.710;2022-10-29T07:44:47;17.60;99.90
25346;DHT22;13300;51.032;3.710;2022-10-29T07:47:13;17.60;99.90
25346;DHT22;13300;51.032;3.710;2022-10-29T07:49:38;17.60;99.90
25346;DHT22;13300;51.032;3.710;2022-10-29T07:52:06;17.70;99.90
25346;DHT22;13300;51.032;3.710;2022-10-29T07:54:33;17.80;99.90
25346;DHT22;13300;51.032;3.710;2022-10-29T07:56:58;17.80;99.90
25346;DHT22;13300;51.032;3.710;2022-10-29T07:59:24;18.00;99.90
25346;DHT22;13300;51.032;3.710;2022-10-29T08:01:50;18.10;99.90
25346;DHT22;13300;51.032;3.710;2022-10-29T08:04:15;18.00;99.90
25346;DHT22;13300;51.032;3.710;2022-10-29T08:06:45;18.10;99.90
25346;DHT22;13300;51.032;3.710;2022-10-29T08:09:23;18.20;99.90
25346;DHT22;13300;51.032;3.710;2022-10-29T08:11:51;18.30;99.90
25346;DHT22;13300;51.032;3.710;2022-10-29T08:14:16;18.30;99.90
25346;DHT22;13300;51.032;3.710;2022-10-29T08:16:42;18.50;99.90
25346;DHT22;13300;51.032;3.710;2022-10-29T08:19:07;18.70;99.90
25346;DHT22;13300;51.032;3.710;2022-10-29T08:21:39;18.60;99.90
25346;DHT22;13300;51.032;3.710;2022-10-29T08:24:08;18.60;99.90
25346;DHT22;13300;51.032;3.710;2022-10-29T08:26:36;18.60;99.90
25346;DHT22;13300;51.032;3.710;2022-10-29T08:29:09;18.50;99.90
25346;DHT22;13300;51.032;3.710;2022-10-29T08:31:37;18.60;99.90
25346;DHT22;13300;51.032;3.710;2022-10-29T08:34:05;18.70;99.90
25346;DHT22;13300;51.032;3.710;2022-10-29T08:36:39;18.90;99.90
25346;DHT22;13300;51.032;3.710;2022-10-29T08:39:05;19.00;99.90
25346;DHT22;13300;51.032;3.710;2022-10-29T08:41:55;19.00;99.90
25346;DHT22;13300;51.032;3.710;2022-10-29T08:44:39;19.20;99.90
25346;DHT22;13300;51.032;3.710;2022-10-29T08:47:28;19.40;99.90
25346;DHT22;13300;51.032;3.710;2022-10-29T08:52:29;20.50;99.90
25346;DHT22;13300;51.032;3.710;2022-10-29T08:57:23;21.30;99.90
25346;DHT22;13300;51.032;3.710;2022-10-29T09:02:21;21.40;99.90
25346;DHT22;13300;51.032;3.710;2022-10-29T09:04:46;21.80;99.90
25346;DHT22;13300;51.032;3.710;2022-10-29T09:26:15;26.30;99.90
25346;DHT22;13300;51.032;3.710;2022-10-29T09:31:15;27.00;99.90
25346;DHT22;13300;51.032;3.710;2022-10-29T09:33:47;27.20;99.90
25346;DHT22;13300;51.032;3.710;2022-10-29T09:36:14;27.50;99.90
25346;DHT22;13300;51.032;3.710;2022-10-29T09:41:16;27.20;99.90
25346;DHT22;13300;51.032;3.710;2022-10-29T09:47:06;28.70;99.90
25346;DHT22;13300;51.032;3.710;2022-10-29T09:52:30;28.90;99.90
25346;DHT22;13300;51.032;3.710;2022-10-29T09:58:00;29.50;99.90
25346;DHT22;13300;51.032;3.710;2022-10-29T10:00:27;29.80;99.90
25346;DHT22;13300;51.032;3.710;2022-10-29T10:05:54;27.70;99.90
25346;DHT22;13300;51.032;3.710;2022-10-29T10:08:20;27.50;99.90
25346;DHT22;13300;51.032;3.710;2022-10-29T10:10:50;28.00;99.90
25346;DHT22;13300;51.032;3.710;2022-10-29T10:13:17;28.30;99.90
25346;DHT22;13300;51.032;3.710;2022-10-29T10:15:52;28.20;99.90
25346;DHT22;13300;51.032;3.710;2022-10-29T10:18:26;27.20;99.90
25346;DHT22;13300;51.032;3.710;2022-10-29T10:23:40;26.80;99.90
25346;DHT22;13300;51.032;3.710;2022-10-29T10:29:10;28.40;99.90
25346;DHT22;13300;51.032;3.710;2022-10-29T10:31:37;29.50;99.90
25346;DHT22;13300;51.032;3.710;2022-10-29T10:36:49;29.30;99.90
25346;DHT22;13300;51.032;3.710;2022-10-29T10:41:47;31.40;99.90
25346;DHT22;13300;51.032;3.710;2022-10-29T10:44:13;30.30;99.90
25346;DHT22;13300;51.032;3.710;2022-10-29T10:46:39;30.00;99.90
25346;DHT22;13300;51.032;3.710;2022-10-29T10:49:11;30.90;99.90
25346;DHT22;13300;51.032;3.710;2022-10-29T10:51:38;30.30;99.90
25346;DHT22;13300;51.032;3.710;2022-10-29T10:54:26;30.00;99.90
25346;DHT22;13300;51.032;3.710;2022-10-29T10:57:35;29.70;99.90
25346;DHT22;13300;51.032;3.710;2022-10-29T10:59:59;29.00;99.90
25346;DHT22;13300;51.032;3.710;2022-10-29T11:05:18;27.80;99.90
25346;DHT22;13300;51.032;3.710;2022-10-29T11:07:44;28.60;99.90
25346;DHT22;13300;51.032;3.710;2022-10-29T11:10:11;29.70;99.90
25346;DHT22;13300;51.032;3.710;2022-10-29T11:15:05;30.60;99.90
25346;DHT22;13300;51.032;3.710;2022-10-29T11:18:09;31.20;99.90
25346;DHT22;13300;51.032;3.710;2022-10-29T11:20:31;30.20;99.90
25346;DHT22;13300;51.032;3.710;2022-10-29T11:23:00;30.30;99.90
25346;DHT22;13300;51.032;3.710;2022-10-29T11:25:40;31.10;99.90
25346;DHT22;13300;51.032;3.710;2022-10-29T11:30:37;31.60;99.70
25346;DHT22;13300;51.032;3.710;2022-10-29T11:33:08;31.40;99.80
25346;DHT22;13300;51.032;3.710;2022-10-29T11:35:45;31.90;99.00
25346;DHT22;13300;51.032;3.710;2022-10-29T11:38:27;32.40;98.70
25346;DHT22;13300;51.032;3.710;2022-10-29T11:40:57;32.50;97.60
25346;DHT22;13300;51.032;3.710;2022-10-29T11:43:29;29.70;99.90
25346;DHT22;13300;51.032;3.710;2022-10-29T11:46:02;29.70;99.90
25346;DHT22;13300;51.032;3.710;2022-10-29T11:53:47;31.80;99.20
25346;DHT22;13300;51.032;3.710;2022-10-29T11:58:51;31.50;99.10
25346;DHT22;13300;51.032;3.710;2022-10-29T12:06:44;30.70;98.80
25346;DHT22;13300;51.032;3.710;2022-10-29T12:11:59;30.30;99.20
25346;DHT22;13300;51.032;3.710;2022-10-29T12:17:12;29.00;99.90
25346;DHT22;13300;51.032;3.710;2022-10-29T12:19:49;29.00;99.90
25346;DHT22;13300;51.032;3.710;2022-10-29T12:27:09;27.80;99.90
25346;DHT22;13300;51.032;3.710;2022-10-29T12:29:49;27.80;99.90
25346;DHT22;13300;51.032;3.710;2022-10-29T12:34:45;28.30;99.90
25346;DHT22;13300;51.032;3.710;2022-10-29T12:39:47;28.60;99.90
25346;DHT22;13300;51.032;3.710;2022-10-29T12:42:18;28.70;99.90
25346;DHT22;13300;51.032;3.710;2022-10-29T12:47:52;28.80;99.90
25346;DHT22;13300;51.032;3.710;2022-10-29T12:55:13;29.30;99.90
25346;DHT22;13300;51.032;3.710;2022-10-29T12:57:39;28.40;99.90
25346;DHT22;13300;51.032;3.710;2022-10-29T13:02:52;27.90;99.90
25346;DHT22;13300;51.032;3.710;2022-10-29T13:05:30;28.00;99.90
25346;DHT22;13300;51.032;3.710;2022-10-29T13:13:00;26.80;99.90
25346;DHT22;13300;51.032;3.710;2022-10-29T13:15:45;26.40;99.90
25346;DHT22;13300;51.032;3.710;2022-10-29T13:20:56;25.90;99.90
25346;DHT22;13300;51.032;3.710;2022-10-29T13:25:48;26.20;99.90
25346;DHT22;13300;51.032;3.710;2022-10-29T13:30:39;26.60;99.90
25346;DHT22;13300;51.032;3.710;2022-10-29T13:38:18;27.20;99.90
25346;DHT22;13300;51.032;3.710;2022-10-29T13:40:55;27.10;99.90
25346;DHT22;13300;51.032;3.710;2022-10-29T13:43:25;26.50;99.90
25346;DHT22;13300;51.032;3.710;2022-10-29T13:45:58;26.30;99.90
25346;DHT22;13300;51.032;3.710;2022-10-29T13:48:35;26.10;99.90
25346;DHT22;13300;51.032;3.710;2022-10-29T13:51:05;25.90;99.90
25346;DHT22;13300;51.032;3.710;2022-10-29T13:59:13;25.60;99.90
25346;DHT22;13300;51.032;3.710;2022-10-29T14:01:43;25.50;99.90
25346;DHT22;13300;51.032;3.710;2022-10-29T14:04:45;25.40;99.90
25346;DHT22;13300;51.032;3.710;2022-10-29T14:07:02;25.10;99.90
25346;DHT22;13300;51.032;3.710;2022-10-29T14:09:35;25.00;99.90
25346;DHT22;13300;51.032;3.710;2022-10-29T14:12:03;25.00;99.90
25346;DHT22;13300;51.032;3.710;2022-10-29T14:17:16;24.80;99.90
25346;DHT22;13300;51.032;3.710;2022-10-29T14:19:45;24.70;99.90
25346;DHT22;13300;51.032;3.710;2022-10-29T14:24:43;24.40;99.90
25346;DHT22;13300;51.032;3.710;2022-10-29T14:27:12;24.40;99.90
25346;DHT22;13300;51.032;3.710;2022-10-29T14:29:40;24.70;99.90
25346;DHT22;13300;51.032;3.710;2022-10-29T14:32:08;24.70;99.90
25346;DHT22;13300;51.032;3.710;2022-10-29T14:34:35;24.70;99.90
25346;DHT22;13300;51.032;3.710;2022-10-29T14:37:04;24.80;99.90
25346;DHT22;13300;51.032;3.710;2022-10-29T14:39:35;24.50;99.90
25346;DHT22;13300;51.032;3.710;2022-10-29T14:42:05;24.40;99.90
25346;DHT22;13300;51.032;3.710;2022-10-29T14:44:36;24.30;99.90
25346;DHT22;13300;51.032;3.710;2022-10-29T14:49:29;24.40;99.90
25346;DHT22;13300;51.032;3.710;2022-10-29T14:51:58;24.30;99.90
25346;DHT22;13300;51.032;3.710;2022-10-29T14:54:27;24.30;99.90
25346;DHT22;13300;51.032;3.710;2022-10-29T14:56:58;24.20;99.90
25346;DHT22;13300;51.032;3.710;2022-10-29T14:59:27;23.90;99.90
25346;DHT22;13300;51.032;3.710;2022-10-29T15:01:56;23.80;99.90
25346;DHT22;13300;51.032;3.710;2022-10-29T15:04:26;23.70;99.90
25346;DHT22;13300;51.032;3.710;2022-10-29T15:06:54;23.50;99.90
25346;DHT22;13300;51.032;3.710;2022-10-29T15:09:24;23.70;99.90
25346;DHT22;13300;51.032;3.710;2022-10-29T15:12:15;23.60;99.90
25346;DHT22;13300;51.032;3.710;2022-10-29T15:17:40;23.20;99.90
25346;DHT22;13300;51.032;3.710;2022-10-29T15:23:11;23.10;99.90
25346;DHT22;13300;51.032;3.710;2022-10-29T15:25:42;22.90;99.90
25346;DHT22;13300;51.032;3.710;2022-10-29T15:28:20;22.80;99.90
25346;DHT22;13300;51.032;3.710;2022-10-29T15:30:47;23.10;99.90
25346;DHT22;13300;51.032;3.710;2022-10-29T15:33:15;22.80;99.90
25346;DHT22;13300;51.032;3.710;2022-10-29T15:36:14;22.70;99.90
25346;DHT22;13300;51.032;3.710;2022-10-29T15:38:54;22.50;99.90
25346;DHT22;13300;51.032;3.710;2022-10-29T15:41:38;22.60;99.90
25346;DHT22;13300;51.032;3.710;2022-10-29T15:46:55;22.50;99.90
25346;DHT22;13300;51.032;3.710;2022-10-29T15:49:26;22.50;99.90
25346;DHT22;13300;51.032;3.710;2022-10-29T15:51:53;22.40;99.90
25346;DHT22;13300;51.032;3.710;2022-10-29T15:54:19;22.40;99.90
25346;DHT22;13300;51.032;3.710;2022-10-29T15:56:44;22.40;99.90
25346;DHT22;13300;51.032;3.710;2022-10-29T15:59:13;22.30;99.90
25346;DHT22;13300;51.032;3.710;2022-10-29T16:01:39;22.30;99.90
25346;DHT22;13300;51.032;3.710;2022-10-29T16:04:05;22.10;99.90
25346;DHT22;13300;51.032;3.710;2022-10-29T16:06:30;22.00;99.90
25346;DHT22;13300;51.032;3.710;2022-10-29T16:08:56;22.00;99.90
25346;DHT22;13300;51.032;3.710;2022-10-29T16:11:23;22.00;99.90
25346;DHT22;13300;51.032;3.710;2022-10-29T16:13:49;22.00;99.90
25346;DHT22;13300;51.032;3.710;2022-10-29T16:16:16;21.90;99.90
25346;DHT22;13300;51.032;3.710;2022-10-29T16:18:42;21.90;99.90
25346;DHT22;13300;51.032;3.710;2022-10-29T16:21:09;21.80;99.90
25346;DHT22;13300;51.032;3.710;2022-10-29T16:23:37;21.60;99.90
25346;DHT22;13300;51.032;3.710;2022-10-29T16:26:03;21.50;99.90
25346;DHT22;13300;51.032;3.710;2022-10-29T16:28:28;21.40;99.90
25346;DHT22;13300;51.032;3.710;2022-10-29T16:30:54;21.40;99.90
25346;DHT22;13300;51.032;3.710;2022-10-29T16:33:21;21.40;99.90
25346;DHT22;13300;51.032;3.710;2022-10-29T16:35:47;21.30;99.90
25346;DHT22;13300;51.032;3.710;2022-10-29T16:38:13;21.20;99.90
25346;DHT22;13300;51.032;3.710;2022-10-29T16:40:40;21.20;99.90
25346;DHT22;13300;51.032;3.710;2022-10-29T16:43:07;21.20;99.90
25346;DHT22;13300;51.032;3.710;2022-10-29T16:45:33;21.20;99.90
25346;DHT22;13300;51.032;3.710;2022-10-29T16:47:58;20.90;99.90
25346;DHT22;13300;51.032;3.710;2022-10-29T16:50:25;21.00;99.90
25346;DHT22;13300;51.032;3.710;2022-10-29T16:55:26;20.80;99.90
25346;DHT22;13300;51.032;3.710;2022-10-29T16:57:52;20.80;99.90
25346;DHT22;13300;51.032;3.710;2022-10-29T17:00:18;20.70;99.90
25346;DHT22;13300;51.032;3.710;2022-10-29T17:02:43;20.80;99.90
25346;DHT22;13300;51.032;3.710;2022-10-29T17:05:10;20.70;99.90
25346;DHT22;13300;51.032;3.710;2022-10-29T17:07:36;20.70;99.90
25346;DHT22;13300;51.032;3.710;2022-10-29T17:10:02;20.60;99.90
25346;DHT22;13300;51.032;3.710;2022-10-29T17:12:27;20.60;99.90
25346;DHT22;13300;51.032;3.710;2022-10-29T17:14:53;20.50;99.90
25346;DHT22;13300;51.032;3.710;2022-10-29T17:17:18;20.50;99.90
25346;DHT22;13300;51.032;3.710;2022-10-29T17:19:44;20.60;99.90
25346;DHT22;13300;51.032;3.710;2022-10-29T17:22:09;20.60;99.90
25346;DHT22;13300;51.032;3.710;2022-10-29T17:24:38;20.50;99.90
25346;DHT22;13300;51.032;3.710;2022-10-29T17:27:04;20.40;99.90
25346;DHT22;13300;51.032;3.710;2022-10-29T17:29:29;20.40;99.90
25346;DHT22;13300;51.032;3.710;2022-10-29T17:31:56;20.30;99.90
25346;DHT22;13300;51.032;3.710;2022-10-29T17:34:29;20.20;99.90
25346;DHT22;13300;51.032;3.710;2022-10-29T17:36:54;20.20;99.90
25346;DHT22;13300;51.032;3.710;2022-10-29T17:39:20;20.30;99.90
25346;DHT22;13300;51.032;3.710;2022-10-29T17:41:53;20.30;99.90
25346;DHT22;13300;51.032;3.710;2022-10-29T17:44:21;20.30;99.90
25346;DHT22;13300;51.032;3.710;2022-10-29T17:46:49;20.20;99.90
25346;DHT22;13300;51.032;3.710;2022-10-29T17:49:33;20.20;99.90
25346;DHT22;13300;51.032;3.710;2022-10-29T17:51:59;20.10;99.90
25346;DHT22;13300;51.032;3.710;2022-10-29T17:54:27;20.30;99.90
25346;DHT22;13300;51.032;3.710;2022-10-29T17:56:53;20.30;99.90
25346;DHT22;13300;51.032;3.710;2022-10-29T17:59:18;20.20;99.90
25346;DHT22;13300;51.032;3.710;2022-10-29T18:01:44;20.20;99.90
25346;DHT22;13300;51.032;3.710;2022-10-29T18:04:10;20.20;99.90
25346;DHT22;13300;51.032;3.710;2022-10-29T18:06:35;20.20;99.90
25346;DHT22;13300;51.032;3.710;2022-10-29T18:09:01;20.20;99.90
25346;DHT22;13300;51.032;3.710;2022-10-29T18:11:27;20.10;99.90
25346;DHT22;13300;51.032;3.710;2022-10-29T18:13:53;20.00;99.90
25346;DHT22;13300;51.032;3.710;2022-10-29T18:16:20;19.90;99.90
25346;DHT22;13300;51.032;3.710;2022-10-29T18:18:47;20.00;99.90
25346;DHT22;13300;51.032;3.710;2022-10-29T18:21:14;20.00;99.90
25346;DHT22;13300;51.032;3.710;2022-10-29T18:23:41;20.00;99.90
25346;DHT22;13300;51.032;3.710;2022-10-29T18:26:21;20.00;99.90
25346;DHT22;13300;51.032;3.710;2022-10-29T18:28:47;20.00;99.90
25346;DHT22;13300;51.032;3.710;2022-10-29T18:31:13;19.90;99.90
25346;DHT22;13300;51.032;3.710;2022-10-29T18:33:41;20.00;99.90
25346;DHT22;13300;51.032;3.710;2022-10-29T18:36:09;19.90;99.90
25346;DHT22;13300;51.032;3.710;2022-10-29T18:38:36;19.90;99.90
25346;DHT22;13300;51.032;3.710;2022-10-29T18:41:02;19.90;99.90
25346;DHT22;13300;51.032;3.710;2022-10-29T18:43:27;19.90;99.90
25346;DHT22;13300;51.032;3.710;2022-10-29T18:45:58;19.90;99.90
25346;DHT22;13300;51.032;3.710;2022-10-29T18:48:27;20.10;99.90
25346;DHT22;13300;51.032;3.710;2022-10-29T18:50:53;20.10;99.90
25346;DHT22;13300;51.032;3.710;2022-10-29T18:53:34;20.00;99.90
25346;DHT22;13300;51.032;3.710;2022-10-29T18:56:00;20.00;99.90
25346;DHT22;13300;51.032;3.710;2022-10-29T18:58:26;19.90;99.90
25346;DHT22;13300;51.032;3.710;2022-10-29T19:00:51;19.80;99.90
25346;DHT22;13300;51.032;3.710;2022-10-29T19:03:17;19.80;99.90
25346;DHT22;13300;51.032;3.710;2022-10-29T19:05:43;19.80;99.90
25346;DHT22;13300;51.032;3.710;2022-10-29T19:08:13;19.80;99.90
25346;DHT22;13300;51.032;3.710;2022-10-29T19:10:40;19.90;99.90
25346;DHT22;13300;51.032;3.710;2022-10-29T19:13:06;19.90;99.90
25346;DHT22;13300;51.032;3.710;2022-10-29T19:15:32;20.10;99.90
25346;DHT22;13300;51.032;3.710;2022-10-29T19:17:58;20.00;99.90
25346;DHT22;13300;51.032;3.710;2022-10-29T19:20:23;19.80;99.90
25346;DHT22;13300;51.032;3.710;2022-10-29T19:22:49;19.70;99.90
25346;DHT22;13300;51.032;3.710;2022-10-29T19:25:15;19.90;99.90
25346;DHT22;13300;51.032;3.710;2022-10-29T19:27:40;19.90;99.90
25346;DHT22;13300;51.032;3.710;2022-10-29T19:30:06;19.80;99.90
25346;DHT22;13300;51.032;3.710;2022-10-29T19:32:32;19.70;99.90
25346;DHT22;13300;51.032;3.710;2022-10-29T19:35:00;20.00;99.90
25346;DHT22;13300;51.032;3.710;2022-10-29T19:37:25;19.90;99.90
25346;DHT22;13300;51.032;3.710;2022-10-29T19:39:51;19.80;99.90
25346;DHT22;13300;51.032;3.710;2022-10-29T19:42:19;19.80;99.90
25346;DHT22;13300;51.032;3.710;2022-10-29T19:44:45;19.70;99.90
25346;DHT22;13300;51.032;3.710;2022-10-29T19:47:13;19.60;99.90
25346;DHT22;13300;51.032;3.710;2022-10-29T19:49:38;19.50;99.90
25346;DHT22;13300;51.032;3.710;2022-10-29T19:52:04;19.50;99.90
25346;DHT22;13300;51.032;3.710;2022-10-29T19:54:29;19.40;99.90
25346;DHT22;13300;51.032;3.710;2022-10-29T19:56:55;19.60;99.90
25346;DHT22;13300;51.032;3.710;2022-10-29T19:59:23;19.50;99.90
25346;DHT22;13300;51.032;3.710;2022-10-29T20:01:49;19.30;99.90
25346;DHT22;13300;51.032;3.710;2022-10-29T20:04:14;19.30;99.90
25346;DHT22;13300;51.032;3.710;2022-10-29T20:06:40;19.30;99.90
25346;DHT22;13300;51.032;3.710;2022-10-29T20:09:08;19.20;99.90
25346;DHT22;13300;51.032;3.710;2022-10-29T20:11:36;19.20;99.90
25346;DHT22;13300;51.032;3.710;2022-10-29T20:14:10;19.10;99.90
25346;DHT22;13300;51.032;3.710;2022-10-29T20:16:36;19.20;99.90
25346;DHT22;13300;51.032;3.710;2022-10-29T20:19:05;19.20;99.90
25346;DHT22;13300;51.032;3.710;2022-10-29T20:21:33;19.30;99.90
25346;DHT22;13300;51.032;3.710;2022-10-29T20:23:59;19.30;99.90
25346;DHT22;13300;51.032;3.710;2022-10-29T20:26:24;19.20;99.90
25346;DHT22;13300;51.032;3.710;2022-10-29T20:28:50;19.30;99.90
25346;DHT22;13300;51.032;3.710;2022-10-29T20:33:42;19.30;99.90
25346;DHT22;13300;51.032;3.710;2022-10-29T20:36:08;19.30;99.90
25346;DHT22;13300;51.032;3.710;2022-10-29T20:38:34;19.30;99.90
25346;DHT22;13300;51.032;3.710;2022-10-29T20:41:04;19.30;99.90
25346;DHT22;13300;51.032;3.710;2022-10-29T20:43:32;19.30;99.90
25346;DHT22;13300;51.032;3.710;2022-10-29T20:46:01;19.30;99.90
25346;DHT22;13300;51.032;3.710;2022-10-29T20:48:27;19.40;99.90
25346;DHT22;13300;51.032;3.710;2022-10-29T20:50:53;19.30;99.90
25346;DHT22;13300;51.032;3.710;2022-10-29T20:53:19;19.30;99.90
25346;DHT22;13300;51.032;3.710;2022-10-29T20:55:48;19.30;99.90
25346;DHT22;13300;51.032;3.710;2022-10-29T20:58:14;19.40;99.90
25346;DHT22;13300;51.032;3.710;2022-10-29T21:00:40;19.30;99.90